createdAt,value
2022-08-22T00:01:44.287Z,99768.75
2022-08-22T00:02:45.811Z,99805.91
2022-08-22T00:02:54.354Z,99792.16
2022-08-22T00:03:07.953Z,99778.25
2022-08-22T00:04:45.141Z,99772.44
2022-08-22T00:07:20.748Z,99763.72
2022-08-22T00:10:52.263Z,99765.56
2022-08-22T00:13:38.918Z,99770.44
2022-08-22T00:16:33.786Z,99763.00
2022-08-22T00:19:12.219Z,99767.97
2022-08-22T00:21:57.980Z,99765.25
2022-08-22T00:24:39.414Z,99770.91
2022-08-22T00:27:12.843Z,99766.28
2022-08-22T00:29:47.431Z,99763.44
2022-08-22T00:32:24.436Z,99766.34
2022-08-22T00:35:00.198Z,99767.19
2022-08-22T00:37:35.238Z,99768.53
2022-08-22T00:40:20.766Z,99767.03
2022-08-22T00:43:24.964Z,99764.16
2022-08-22T00:46:10.646Z,99763.81
2022-08-22T00:48:40.323Z,99762.78
2022-08-22T00:51:32.598Z,99756.13
2022-08-22T00:54:13.360Z,99759.88
2022-08-22T00:57:41.320Z,99742.47
2022-08-22T01:00:26.580Z,99763.06
2022-08-22T01:03:22.895Z,99754.19
2022-08-22T01:06:01.913Z,99748.06
2022-08-22T01:08:36.307Z,99747.53
2022-08-22T01:11:08.966Z,99755.00
2022-08-22T01:13:43.556Z,99754.47
2022-08-22T01:16:16.415Z,99750.03
2022-08-22T01:19:06.513Z,99745.62
2022-08-22T01:21:56.502Z,99759.38
2022-08-22T01:25:08.019Z,99757.84
2022-08-22T01:28:13.074Z,99761.25
2022-08-22T01:31:01.680Z,99755.31
2022-08-22T01:33:44.690Z,99750.72
2022-08-22T01:36:26.815Z,99745.16
2022-08-22T01:39:21.629Z,99747.66
2022-08-22T01:42:07.884Z,99753.62
2022-08-22T01:44:57.874Z,99757.16
2022-08-22T01:47:36.735Z,99754.09
2022-08-22T01:50:30.263Z,99754.44
2022-08-22T01:53:08.938Z,99751.06
2022-08-22T01:56:05.503Z,99747.66
2022-08-22T01:58:35.143Z,99753.25
2022-08-22T02:01:11.295Z,99746.31
2022-08-22T02:04:05.871Z,99745.38
2022-08-22T02:06:46.177Z,99746.75
2022-08-22T02:09:42.152Z,99738.56
2022-08-22T02:12:37.835Z,99752.13
2022-08-22T02:15:07.525Z,99742.66
2022-08-22T02:18:01.470Z,99747.06
2022-08-22T02:20:30.866Z,99749.47
2022-08-22T02:23:36.253Z,99751.47
2022-08-22T02:26:03.033Z,99735.69
2022-08-22T02:28:57.136Z,99745.38
2022-08-22T02:31:36.757Z,99744.53
2022-08-22T02:34:35.247Z,99736.56
2022-08-22T02:37:13.491Z,99740.28
2022-08-22T02:40:05.350Z,99733.66
2022-08-22T02:42:56.397Z,99725.53
2022-08-22T02:45:30.253Z,99720.25
2022-08-22T02:48:15.871Z,99736.69
2022-08-22T02:50:54.220Z,99735.84
2022-08-22T02:53:27.647Z,99740.38
2022-08-22T02:56:06.720Z,99741.34
2022-08-22T02:58:42.597Z,99735.03
2022-08-22T03:01:15.201Z,99732.97
2022-08-22T03:03:43.689Z,99739.78
2022-08-22T03:06:32.729Z,99739.47
2022-08-22T03:09:20.348Z,99741.84
2022-08-22T03:11:50.698Z,99745.97
2022-08-22T03:14:32.604Z,99742.87
2022-08-22T03:17:14.053Z,99741.91
2022-08-22T03:20:08.103Z,99743.09
2022-08-22T03:23:00.076Z,99748.22
2022-08-22T03:25:57.160Z,99743.81
2022-08-22T03:28:37.272Z,99749.75
2022-08-22T03:31:16.737Z,99751.13
2022-08-22T03:33:44.522Z,99740.44
2022-08-22T03:36:14.228Z,99724.28
2022-08-22T03:39:12.302Z,99751.78
2022-08-22T03:41:52.722Z,99743.31
2022-08-22T03:44:31.441Z,99733.66
2022-08-22T03:47:17.162Z,99742.66
2022-08-22T03:50:35.308Z,99743.47
2022-08-22T03:53:24.904Z,99745.19
2022-08-22T03:56:29.563Z,99753.50
2022-08-22T03:59:10.241Z,99744.47
2022-08-22T04:01:58.296Z,99756.50
2022-08-22T04:04:37.069Z,99758.72
2022-08-22T04:07:31.411Z,99756.16
2022-08-22T04:10:15.146Z,99759.91
2022-08-22T04:13:03.161Z,99756.34
2022-08-22T04:15:54.609Z,99766.13
2022-08-22T04:19:05.755Z,99764.63
2022-08-22T04:21:55.894Z,99762.19
2022-08-22T04:24:44.469Z,99774.25
2022-08-22T04:27:38.468Z,99772.19
2022-08-22T04:30:22.995Z,99776.53
2022-08-22T04:33:17.635Z,99780.13
2022-08-22T04:36:07.728Z,99782.84
2022-08-22T04:38:38.416Z,99779.13
2022-08-22T04:41:12.942Z,99773.19
2022-08-22T04:43:45.425Z,99778.47
2022-08-22T04:46:36.878Z,99781.22
2022-08-22T04:49:38.412Z,99780.44
2022-08-22T04:52:11.852Z,99789.06
2022-08-22T04:55:25.460Z,99785.91
2022-08-22T04:58:22.240Z,99789.69
2022-08-22T05:01:04.487Z,99788.69
2022-08-22T05:03:33.304Z,99773.31
2022-08-22T05:06:01.864Z,99798.62
2022-08-22T05:08:33.357Z,99800.97
2022-08-22T05:11:02.596Z,99796.56
2022-08-22T05:13:32.668Z,99795.37
2022-08-22T05:16:03.422Z,99804.06
2022-08-22T05:18:44.154Z,99798.16
2022-08-22T05:21:13.929Z,99799.00
2022-08-22T05:23:58.358Z,99805.28
2022-08-22T05:26:25.605Z,99798.50
2022-08-22T05:28:58.537Z,99795.78
2022-08-22T05:31:29.104Z,99796.09
2022-08-22T05:34:06.797Z,99813.78
2022-08-22T05:36:40.702Z,99813.66
2022-08-22T05:39:12.232Z,99821.47
2022-08-22T05:41:39.991Z,99819.59
2022-08-22T05:44:22.254Z,99814.81
2022-08-22T05:47:01.443Z,99818.22
2022-08-22T05:49:34.590Z,99818.37
2022-08-22T05:52:45.757Z,99826.37
2022-08-22T05:55:21.588Z,99825.00
2022-08-22T05:57:53.405Z,99832.19
2022-08-22T06:00:22.728Z,99839.47
2022-08-22T06:03:02.437Z,99836.75
2022-08-22T06:05:32.486Z,99841.50
2022-08-22T06:08:17.772Z,99844.75
2022-08-22T06:10:48.343Z,99839.13
2022-08-22T06:13:22.008Z,99843.72
2022-08-22T06:15:56.820Z,99848.31
2022-08-22T06:18:26.817Z,99848.47
2022-08-22T06:20:56.321Z,99832.16
2022-08-22T06:23:27.767Z,99849.66
2022-08-22T06:25:57.441Z,99842.19
2022-08-22T06:28:27.042Z,99854.28
2022-08-22T06:30:55.760Z,99853.59
2022-08-22T06:33:26.614Z,99857.97
2022-08-22T06:36:22.766Z,99861.00
2022-08-22T06:39:21.840Z,99847.34
2022-08-22T06:41:57.125Z,99863.66
2022-08-22T06:44:28.332Z,99869.78
2022-08-22T06:46:58.381Z,99866.22
2022-08-22T06:49:27.223Z,99875.75
2022-08-22T06:51:58.774Z,99875.91
2022-08-22T06:54:30.407Z,99869.75
2022-08-22T06:57:01.207Z,99875.88
2022-08-22T06:59:30.564Z,99872.91
2022-08-22T07:02:08.021Z,99871.94
2022-08-22T07:04:35.007Z,99873.59
2022-08-22T07:07:02.179Z,99860.00
2022-08-22T07:09:34.858Z,99864.75
2022-08-22T07:12:04.955Z,99860.69
2022-08-22T07:14:44.145Z,99863.72
2022-08-22T07:17:40.605Z,99870.28
2022-08-22T07:20:41.966Z,99869.59
2022-08-22T07:23:31.760Z,99876.56
2022-08-22T07:26:36.955Z,99878.63
2022-08-22T07:29:10.732Z,99872.81
2022-08-22T07:31:46.544Z,99872.84
2022-08-22T07:34:32.674Z,99874.59
2022-08-22T07:37:15.022Z,99872.72
2022-08-22T07:39:53.956Z,99866.31
2022-08-22T07:42:29.736Z,99877.28
2022-08-22T07:44:56.919Z,99869.59
2022-08-22T07:47:26.600Z,99878.47
2022-08-22T07:50:00.061Z,99868.84
2022-08-22T07:52:35.841Z,99866.41
2022-08-22T07:55:23.870Z,99864.87
2022-08-22T07:57:59.286Z,99861.34
2022-08-22T08:00:28.992Z,99871.81
2022-08-22T08:02:58.757Z,99859.59
2022-08-22T08:05:28.728Z,99860.72
2022-08-22T08:07:56.444Z,99859.25
2022-08-22T08:10:27.661Z,99863.06
2022-08-22T08:13:08.408Z,99863.56
2022-08-22T08:15:37.810Z,99857.91
2022-08-22T08:18:19.222Z,99856.16
2022-08-22T08:20:50.868Z,99861.06
2022-08-22T08:23:23.446Z,99857.78
2022-08-22T08:26:17.386Z,99865.00
2022-08-22T08:28:47.071Z,99858.28
2022-08-22T08:31:21.641Z,99859.06
2022-08-22T08:33:50.505Z,99858.41
2022-08-22T08:36:37.491Z,99849.00
2022-08-22T08:39:34.823Z,99859.72
2022-08-22T08:42:59.663Z,99858.38
2022-08-22T08:45:47.658Z,99844.94
2022-08-22T08:48:32.829Z,99839.00
2022-08-22T08:51:09.256Z,99831.63
2022-08-22T08:53:57.877Z,99835.69
2022-08-22T08:56:40.497Z,99841.81
2022-08-22T08:59:26.341Z,99851.94
2022-08-22T09:02:20.328Z,99838.00
2022-08-22T09:05:24.547Z,99843.91
2022-08-22T09:08:16.983Z,99843.84
2022-08-22T09:11:28.273Z,99848.69
2022-08-22T09:13:55.575Z,99828.41
2022-08-22T09:16:53.256Z,99838.38
2022-08-22T09:19:37.999Z,99830.94
2022-08-22T09:25:28.758Z,99821.03
2022-08-22T09:28:13.678Z,99808.81
2022-08-22T09:31:17.024Z,99814.28
2022-08-22T09:33:56.119Z,99818.94
2022-08-22T09:36:48.288Z,99800.47
2022-08-22T09:39:19.536Z,99797.81
2022-08-22T09:40:15.555Z,99814.50
2022-08-22T09:42:15.083Z,99793.09
2022-08-22T09:45:17.579Z,99817.50
2022-08-22T09:48:02.246Z,99803.63
2022-08-22T09:51:01.627Z,99804.38
2022-08-22T09:53:55.718Z,99811.63
2022-08-22T09:56:57.236Z,99817.13
2022-08-22T10:00:02.685Z,99817.81
2022-08-22T10:02:50.245Z,99807.12
2022-08-22T10:05:40.981Z,99813.72
2022-08-22T10:08:39.897Z,99814.72
2022-08-22T10:11:15.509Z,99796.00
2022-08-22T10:14:00.861Z,99797.81
2022-08-22T10:16:40.554Z,99797.91
2022-08-22T10:19:26.240Z,99803.09
2022-08-22T10:22:19.794Z,99772.41
2022-08-22T10:25:07.645Z,99776.44
2022-08-22T10:27:43.578Z,99769.56
2022-08-22T10:30:13.179Z,99778.19
2022-08-22T10:32:45.205Z,99790.91
2022-08-22T10:35:19.133Z,99792.66
2022-08-22T10:38:04.893Z,99787.91
2022-08-22T10:41:10.330Z,99787.56
2022-08-22T10:43:46.279Z,99794.25
2022-08-22T10:46:17.217Z,99778.44
2022-08-22T10:49:08.079Z,99781.81
2022-08-22T10:51:44.690Z,99771.50
2022-08-22T10:54:24.635Z,99779.84
2022-08-22T10:57:33.115Z,99780.94
2022-08-22T11:00:12.441Z,99782.88
2022-08-22T11:03:10.654Z,99766.84
2022-08-22T11:05:43.754Z,99784.22
2022-08-22T11:08:33.068Z,99776.38
2022-08-22T11:11:14.197Z,99785.09
2022-08-22T11:14:12.074Z,99777.38
2022-08-22T11:16:46.851Z,99772.16
2022-08-22T11:19:22.761Z,99787.34
2022-08-22T11:22:07.798Z,99777.66
2022-08-22T11:25:02.355Z,99785.63
2022-08-22T11:27:50.810Z,99777.38
2022-08-22T11:30:30.977Z,99782.69
2022-08-22T11:33:13.789Z,99759.75
2022-08-22T11:35:47.827Z,99766.84
2022-08-22T11:38:17.281Z,99764.87
2022-08-22T11:40:59.483Z,99779.66
2022-08-22T11:43:50.909Z,99768.00
2022-08-22T11:46:23.046Z,99769.03
2022-08-22T11:49:03.490Z,99761.88
2022-08-22T11:51:43.628Z,99769.75
2022-08-22T11:54:19.877Z,99763.91
2022-08-22T11:57:07.011Z,99754.94
2022-08-22T11:59:43.152Z,99756.53
2022-08-22T12:02:44.193Z,99731.31
2022-08-22T12:05:24.321Z,99757.69
2022-08-22T12:07:57.015Z,99743.53
2022-08-22T12:10:32.975Z,99734.34
2022-08-22T12:13:08.553Z,99750.25
2022-08-22T12:15:54.164Z,99751.47
2022-08-22T12:18:21.693Z,99739.78
2022-08-22T12:21:05.489Z,99764.69
2022-08-22T12:23:55.073Z,99753.28
2022-08-22T12:26:31.095Z,99738.88
2022-08-22T12:29:33.975Z,99740.84
2022-08-22T12:32:15.934Z,99734.59
2022-08-22T12:35:14.057Z,99734.84
2022-08-22T12:37:52.883Z,99713.72
2022-08-22T12:41:09.422Z,99709.69
2022-08-22T12:43:42.718Z,99693.09
2022-08-22T12:46:35.074Z,99693.78
2022-08-22T12:49:09.152Z,99710.72
2022-08-22T12:51:41.935Z,99712.31
2022-08-22T12:54:27.576Z,99707.81
2022-08-22T12:57:23.864Z,99707.44
2022-08-22T12:59:59.401Z,99696.91
2022-08-22T13:02:32.807Z,99693.31
2022-08-22T13:05:10.900Z,99684.75
2022-08-22T13:07:40.809Z,99678.53
2022-08-22T13:10:15.048Z,99669.12
2022-08-22T13:12:51.507Z,99684.41
2022-08-22T13:15:21.390Z,99686.19
2022-08-22T13:17:51.055Z,99682.66
2022-08-22T13:20:27.947Z,99677.56
2022-08-22T13:22:55.581Z,99699.75
2022-08-22T13:25:25.924Z,99696.84
2022-08-22T13:27:59.107Z,99698.88
2022-08-22T13:30:34.931Z,99686.09
2022-08-22T13:33:16.618Z,99702.00
2022-08-22T13:35:51.851Z,99687.75
2022-08-22T13:38:26.889Z,99698.84
2022-08-22T13:40:56.571Z,99697.69
2022-08-22T13:43:38.155Z,99694.84
2022-08-22T13:46:11.073Z,99693.69
2022-08-22T13:48:49.635Z,99708.88
2022-08-22T13:51:24.841Z,99691.41
2022-08-22T13:54:27.305Z,99707.16
2022-08-22T13:57:24.664Z,99702.91
2022-08-22T14:00:13.210Z,99681.31
2022-08-22T14:03:05.349Z,99682.91
2022-08-22T14:05:41.372Z,99674.28
2022-08-22T14:08:18.455Z,99673.22
2022-08-22T14:11:26.001Z,99679.31
2022-08-22T14:14:00.450Z,99669.47
2022-08-22T14:16:31.962Z,99681.78
2022-08-22T14:19:06.116Z,99676.06
2022-08-22T14:21:43.590Z,99657.16
2022-08-22T14:24:27.265Z,99674.63
2022-08-22T14:26:54.179Z,99675.09
2022-08-22T14:29:28.079Z,99685.50
2022-08-22T14:32:23.825Z,99682.69
2022-08-22T14:35:21.439Z,99677.22
2022-08-22T14:38:17.336Z,99665.13
2022-08-22T14:40:45.098Z,99653.72
2022-08-22T14:43:27.170Z,99647.88
2022-08-22T14:45:57.384Z,99657.47
2022-08-22T14:48:47.840Z,99667.34
2022-08-22T14:51:24.660Z,99642.47
2022-08-22T14:53:52.008Z,99642.44
2022-08-22T14:56:29.649Z,99647.19
2022-08-22T14:58:58.932Z,99649.28
2022-08-22T15:01:29.877Z,99663.13
2022-08-22T15:04:06.227Z,99663.09
2022-08-22T15:06:51.255Z,99693.50
2022-08-22T15:09:36.375Z,99685.34
2022-08-22T15:12:23.943Z,99714.03
2022-08-22T15:15:00.359Z,99711.03
2022-08-22T15:17:50.767Z,99752.91
2022-08-22T15:20:27.677Z,99735.94
2022-08-22T15:22:58.069Z,99759.44
2022-08-22T15:25:38.071Z,99788.06
2022-08-22T15:28:20.165Z,99787.41
2022-08-22T15:30:56.807Z,99808.25
2022-08-22T15:33:29.416Z,99809.78
2022-08-22T15:36:12.280Z,99809.81
2022-08-22T15:38:55.324Z,99827.44
2022-08-22T15:41:22.649Z,99837.34
2022-08-22T15:43:52.478Z,99826.78
2022-08-22T15:46:25.987Z,99842.72
2022-08-22T15:49:23.245Z,99861.72
2022-08-22T15:52:00.556Z,99852.31
2022-08-22T15:54:30.394Z,99832.13
2022-08-22T15:57:10.231Z,99840.19
2022-08-22T15:59:53.752Z,99839.53
2022-08-22T16:02:37.067Z,99841.25
2022-08-22T16:05:10.359Z,99848.50
2022-08-22T16:07:43.051Z,99850.38
2022-08-22T16:10:22.389Z,99865.56
2022-08-22T16:13:26.278Z,99872.25
2022-08-22T16:16:07.131Z,99883.78
2022-08-22T16:18:34.002Z,99884.34
2022-08-22T16:21:05.472Z,99868.69
2022-08-22T16:23:54.043Z,99871.03
2022-08-22T16:26:25.118Z,99853.66
2022-08-22T16:29:04.130Z,99842.66
2022-08-22T16:31:42.827Z,99859.13
2022-08-22T16:34:15.749Z,99864.97
2022-08-22T16:37:19.506Z,99869.75
2022-08-22T16:40:01.824Z,99880.66
2022-08-22T16:42:41.750Z,99877.75
2022-08-22T16:45:08.494Z,99877.44
2022-08-22T16:47:41.395Z,99882.00
2022-08-22T16:50:22.463Z,99877.19
2022-08-22T16:53:06.543Z,99867.69
2022-08-22T16:55:36.039Z,99863.87
2022-08-22T16:58:17.971Z,99859.66
2022-08-22T17:01:07.406Z,99870.47
2022-08-22T17:03:43.759Z,99867.00
2022-08-22T17:06:37.620Z,99875.59
2022-08-22T17:09:18.628Z,99867.84
2022-08-22T17:12:09.820Z,99872.63
2022-08-22T17:14:49.195Z,99891.19
2022-08-22T17:17:28.031Z,99886.25
2022-08-22T17:20:19.513Z,99894.50
2022-08-22T17:23:09.356Z,99894.09
2022-08-22T17:26:03.715Z,99907.00
2022-08-22T17:29:04.727Z,99913.31
2022-08-22T17:31:54.653Z,99933.78
2022-08-22T17:34:46.366Z,99941.81
2022-08-22T17:37:32.285Z,99954.13
2022-08-22T17:40:51.367Z,99950.50
2022-08-22T17:43:18.197Z,99944.50
2022-08-22T17:46:13.466Z,99950.69
2022-08-22T17:48:52.503Z,99953.72
2022-08-22T17:51:43.305Z,99943.56
2022-08-22T17:54:29.632Z,99942.16
2022-08-22T17:57:08.660Z,99948.44
2022-08-22T18:00:17.978Z,99952.12
2022-08-22T18:02:58.860Z,99951.28
2022-08-22T18:05:36.548Z,99953.72
2022-08-22T18:08:37.394Z,99957.09
2022-08-22T18:11:04.411Z,99956.97
2022-08-22T18:14:07.738Z,99950.00
2022-08-22T18:16:48.839Z,99951.34
2022-08-22T18:19:18.724Z,99945.41
2022-08-22T18:21:50.994Z,99951.56
2022-08-22T18:24:22.715Z,99941.03
2022-08-22T18:26:57.316Z,99917.03
2022-08-22T18:29:43.095Z,99942.56
2022-08-22T18:32:19.838Z,99948.00
2022-08-22T18:35:05.694Z,99951.91
2022-08-22T18:37:35.452Z,99961.41
2022-08-22T18:40:08.022Z,99962.78
2022-08-22T18:42:51.119Z,99963.13
2022-08-22T18:45:44.030Z,99965.19
2022-08-22T18:48:31.731Z,99969.41
2022-08-22T18:51:34.915Z,99967.53
2022-08-22T18:54:05.210Z,99971.28
2022-08-22T18:56:35.264Z,99965.50
2022-08-22T18:59:30.972Z,99973.69
2022-08-22T19:02:33.558Z,99970.28
2022-08-22T19:05:00.454Z,99969.09
2022-08-22T19:07:51.101Z,99981.81
2022-08-22T19:10:55.645Z,99970.44
2022-08-22T19:13:40.683Z,99978.78
2022-08-22T19:16:19.046Z,99982.88
2022-08-22T19:18:52.215Z,99987.78
2022-08-22T19:21:41.795Z,100004.13
2022-08-22T19:24:20.158Z,100011.44
2022-08-22T19:26:49.189Z,100010.59
2022-08-22T19:29:17.276Z,100007.34
2022-08-22T19:31:50.356Z,100006.16
2022-08-22T19:34:28.315Z,100011.62
2022-08-22T19:37:32.458Z,100012.28
2022-08-22T19:40:11.785Z,100005.81
2022-08-22T19:42:41.612Z,100002.75
2022-08-22T19:45:22.991Z,99999.22
2022-08-22T19:48:54.773Z,99997.28
2022-08-22T19:51:21.580Z,100006.16
2022-08-22T19:54:16.240Z,100002.56
2022-08-22T19:57:10.109Z,99999.19
2022-08-22T20:00:00.292Z,100001.38
2022-08-22T20:02:35.637Z,100001.06
2022-08-22T20:05:12.979Z,99996.50
2022-08-22T20:07:58.484Z,99989.69
2022-08-22T20:10:55.764Z,99997.19
2022-08-22T20:13:25.717Z,100003.97
2022-08-22T20:16:07.444Z,100000.00
2022-08-22T20:19:06.594Z,100000.88
2022-08-22T20:21:52.164Z,100002.22
2022-08-22T20:24:46.489Z,100009.38
2022-08-22T20:27:19.928Z,100001.88
2022-08-22T20:30:15.300Z,99998.31
2022-08-22T20:32:43.949Z,99987.59
2022-08-22T20:35:17.004Z,99992.53
2022-08-22T20:38:05.717Z,99985.41
2022-08-22T20:40:56.168Z,99976.41
2022-08-22T20:43:46.121Z,99974.50
2022-08-22T20:46:38.595Z,99974.00
2022-08-22T20:49:24.423Z,99975.19
2022-08-22T20:52:14.486Z,99967.00
2022-08-22T20:54:41.318Z,99970.28
2022-08-22T20:57:18.184Z,99979.94
2022-08-22T21:00:15.967Z,99978.78
2022-08-22T21:02:47.394Z,99976.47
2022-08-22T21:05:14.118Z,99965.44
2022-08-22T21:07:46.447Z,99975.28
2022-08-22T21:10:35.135Z,99986.69
2022-08-22T21:13:22.097Z,99980.84
2022-08-22T21:15:55.451Z,99988.56
2022-08-22T21:18:31.022Z,99984.13
2022-08-22T21:21:05.190Z,99988.22
2022-08-22T21:23:36.463Z,99981.75
2022-08-22T21:26:07.513Z,99986.47
2022-08-22T21:28:54.626Z,99980.50
2022-08-22T21:31:25.925Z,99974.25
2022-08-22T21:33:54.128Z,99982.56
2022-08-22T21:36:24.781Z,99989.38
2022-08-22T21:39:06.864Z,99989.19
2022-08-22T21:42:14.184Z,99979.81
2022-08-22T21:44:43.502Z,99982.53
2022-08-22T21:47:15.147Z,99978.50
2022-08-22T21:50:04.653Z,99979.69
2022-08-22T21:52:34.842Z,99985.28
2022-08-22T21:55:35.021Z,99989.88
2022-08-22T21:58:35.142Z,99989.75
2022-08-22T22:01:03.987Z,99998.22
2022-08-22T22:03:38.357Z,99993.50
2022-08-22T22:06:06.425Z,99987.22
2022-08-22T22:08:33.665Z,99983.97
2022-08-22T22:11:04.699Z,99991.28
2022-08-22T22:13:33.052Z,100000.63
2022-08-22T22:16:00.012Z,100000.44
2022-08-22T22:18:30.721Z,100003.88
2022-08-22T22:20:58.044Z,100011.75
2022-08-22T22:23:26.265Z,100021.97
2022-08-22T22:25:54.659Z,100018.56
2022-08-22T22:28:30.966Z,100022.31
2022-08-22T22:30:57.907Z,100019.06
2022-08-22T22:33:28.485Z,100023.66
2022-08-22T22:35:57.639Z,100019.56
2022-08-22T22:38:24.698Z,100019.75
2022-08-22T22:40:52.376Z,100028.78
2022-08-22T22:43:19.361Z,100021.28
2022-08-22T22:45:46.400Z,100001.38
2022-08-22T22:48:17.548Z,100020.44
2022-08-22T22:50:52.885Z,100024.16
2022-08-22T22:53:21.452Z,100025.34
2022-08-22T22:56:07.578Z,100031.81
2022-08-22T22:58:36.971Z,100030.28
2022-08-22T23:01:25.750Z,100014.47
2022-08-22T23:03:57.460Z,99982.94
2022-08-22T23:06:26.198Z,100029.12
2022-08-22T23:08:53.674Z,100036.84
2022-08-22T23:11:28.431Z,100029.00
2022-08-22T23:13:55.916Z,100037.25
2022-08-22T23:16:26.470Z,100032.72
2022-08-22T23:18:53.611Z,100030.56
2022-08-22T23:21:21.925Z,100029.56
2022-08-22T23:23:49.344Z,100021.72
2022-08-22T23:26:17.015Z,100030.53
2022-08-22T23:28:43.896Z,100021.00
2022-08-22T23:31:19.416Z,100013.03
2022-08-22T23:33:46.535Z,100026.66
2022-08-22T23:36:17.697Z,100038.25
2022-08-22T23:38:45.166Z,100022.41
2022-08-22T23:41:13.597Z,100035.84
2022-08-22T23:43:45.714Z,100030.84
2022-08-22T23:46:14.363Z,100033.25
2022-08-22T23:48:41.443Z,100026.81
2022-08-22T23:51:13.621Z,100029.34
2022-08-22T23:53:41.315Z,100030.56
2022-08-22T23:56:19.158Z,100030.03
2022-08-22T23:58:48.949Z,100028.56
